sensor_id;sensor_type;location;lat;lon;timestamp;P1;durP1;ratioP1;P2;durP2;ratioP2
67595;SDS011;54410;48.694;8.934;2024-01-25T00:02:21;17.20;;;4.25;;
67595;SDS011;54410;48.694;8.934;2024-01-25T00:04:47;15.85;;;3.75;;
67595;SDS011;54410;48.694;8.934;2024-01-25T00:07:13;18.83;;;4.05;;
67595;SDS011;54410;48.694;8.934;2024-01-25T00:09:39;18.88;;;4.22;;
67595;SDS011;54410;48.694;8.934;2024-01-25T00:12:05;14.38;;;4.10;;
67595;SDS011;54410;48.694;8.934;2024-01-25T00:14:31;13.90;;;4.38;;
67595;SDS011;54410;48.694;8.934;2024-01-25T00:16:57;14.23;;;3.70;;
67595;SDS011;54410;48.694;8.934;2024-01-25T00:19:23;10.60;;;3.80;;
67595;SDS011;54410;48.694;8.934;2024-01-25T00:21:49;13.57;;;3.30;;
67595;SDS011;54410;48.694;8.934;2024-01-25T00:24:15;15.13;;;4.22;;
67595;SDS011;54410;48.694;8.934;2024-01-25T00:26:40;14.50;;;3.78;;
67595;SDS011;54410;48.694;8.934;2024-01-25T00:29:06;13.18;;;3.65;;
67595;SDS011;54410;48.694;8.934;2024-01-25T00:31:32;20.75;;;4.45;;
67595;SDS011;54410;48.694;8.934;2024-01-25T00:33:58;14.60;;;3.72;;
67595;SDS011;54410;48.694;8.934;2024-01-25T00:36:24;14.55;;;3.72;;
67595;SDS011;54410;48.694;8.934;2024-01-25T00:38:51;17.23;;;4.18;;
67595;SDS011;54410;48.694;8.934;2024-01-25T00:41:17;14.00;;;3.85;;
67595;SDS011;54410;48.694;8.934;2024-01-25T00:43:46;12.77;;;3.80;;
67595;SDS011;54410;48.694;8.934;2024-01-25T00:46:13;19.80;;;3.97;;
67595;SDS011;54410;48.694;8.934;2024-01-25T00:48:39;9.73;;;3.33;;
67595;SDS011;54410;48.694;8.934;2024-01-25T00:51:07;11.45;;;3.47;;
67595;SDS011;54410;48.694;8.934;2024-01-25T00:53:34;13.35;;;3.38;;
67595;SDS011;54410;48.694;8.934;2024-01-25T00:56:00;15.15;;;3.83;;
67595;SDS011;54410;48.694;8.934;2024-01-25T00:58:26;13.98;;;3.58;;
67595;SDS011;54410;48.694;8.934;2024-01-25T01:00:52;13.02;;;3.60;;
67595;SDS011;54410;48.694;8.934;2024-01-25T01:03:18;13.35;;;3.63;;
67595;SDS011;54410;48.694;8.934;2024-01-25T01:05:45;10.63;;;3.67;;
67595;SDS011;54410;48.694;8.934;2024-01-25T01:08:11;11.13;;;3.28;;
67595;SDS011;54410;48.694;8.934;2024-01-25T01:10:37;15.63;;;4.13;;
67595;SDS011;54410;48.694;8.934;2024-01-25T01:13:03;18.48;;;3.83;;
67595;SDS011;54410;48.694;8.934;2024-01-25T01:15:29;12.30;;;4.20;;
67595;SDS011;54410;48.694;8.934;2024-01-25T01:17:55;13.77;;;3.63;;
67595;SDS011;54410;48.694;8.934;2024-01-25T01:20:21;14.35;;;3.65;;
67595;SDS011;54410;48.694;8.934;2024-01-25T01:22:47;10.88;;;3.50;;
67595;SDS011;54410;48.694;8.934;2024-01-25T01:25:13;14.05;;;2.90;;
67595;SDS011;54410;48.694;8.934;2024-01-25T01:27:39;9.43;;;3.42;;
67595;SDS011;54410;48.694;8.934;2024-01-25T01:30:05;13.15;;;3.28;;
67595;SDS011;54410;48.694;8.934;2024-01-25T01:32:33;18.45;;;3.58;;
67595;SDS011;54410;48.694;8.934;2024-01-25T01:34:59;12.27;;;3.40;;
67595;SDS011;54410;48.694;8.934;2024-01-25T01:37:26;14.40;;;3.63;;
67595;SDS011;54410;48.694;8.934;2024-01-25T01:39:52;9.68;;;3.35;;
67595;SDS011;54410;48.694;8.934;2024-01-25T01:42:20;10.95;;;3.20;;
67595;SDS011;54410;48.694;8.934;2024-01-25T01:44:46;10.43;;;3.22;;
67595;SDS011;54410;48.694;8.934;2024-01-25T01:47:12;18.08;;;3.63;;
67595;SDS011;54410;48.694;8.934;2024-01-25T01:49:38;9.82;;;3.50;;
67595;SDS011;54410;48.694;8.934;2024-01-25T01:52:05;12.95;;;3.75;;
67595;SDS011;54410;48.694;8.934;2024-01-25T01:54:31;15.27;;;3.88;;
67595;SDS011;54410;48.694;8.934;2024-01-25T01:56:57;12.35;;;3.42;;
67595;SDS011;54410;48.694;8.934;2024-01-25T01:59:24;13.10;;;3.95;;
67595;SDS011;54410;48.694;8.934;2024-01-25T02:01:51;10.90;;;3.03;;
67595;SDS011;54410;48.694;8.934;2024-01-25T02:04:17;14.35;;;3.30;;
67595;SDS011;54410;48.694;8.934;2024-01-25T02:06:43;14.82;;;3.63;;
67595;SDS011;54410;48.694;8.934;2024-01-25T02:09:10;13.48;;;3.45;;
67595;SDS011;54410;48.694;8.934;2024-01-25T02:11:36;13.32;;;3.35;;
67595;SDS011;54410;48.694;8.934;2024-01-25T02:14:02;13.20;;;3.75;;
67595;SDS011;54410;48.694;8.934;2024-01-25T02:16:28;15.85;;;3.42;;
67595;SDS011;54410;48.694;8.934;2024-01-25T02:18:54;14.85;;;3.72;;
67595;SDS011;54410;48.694;8.934;2024-01-25T02:21:22;12.45;;;3.53;;
67595;SDS011;54410;48.694;8.934;2024-01-25T02:23:49;18.30;;;3.75;;
67595;SDS011;54410;48.694;8.934;2024-01-25T02:26:15;20.60;;;4.25;;
67595;SDS011;54410;48.694;8.934;2024-01-25T02:28:41;18.02;;;4.53;;
67595;SDS011;54410;48.694;8.934;2024-01-25T02:31:07;13.00;;;4.07;;
67595;SDS011;54410;48.694;8.934;2024-01-25T02:33:33;22.50;;;4.10;;
67595;SDS011;54410;48.694;8.934;2024-01-25T02:35:59;17.23;;;4.38;;
67595;SDS011;54410;48.694;8.934;2024-01-25T02:38:25;13.63;;;3.78;;
67595;SDS011;54410;48.694;8.934;2024-01-25T02:40:51;16.85;;;3.65;;
67595;SDS011;54410;48.694;8.934;2024-01-25T02:43:18;13.27;;;3.78;;
67595;SDS011;54410;48.694;8.934;2024-01-25T02:45:45;14.32;;;3.22;;
67595;SDS011;54410;48.694;8.934;2024-01-25T02:48:11;16.10;;;4.05;;
67595;SDS011;54410;48.694;8.934;2024-01-25T02:50:37;12.75;;;3.42;;
67595;SDS011;54410;48.694;8.934;2024-01-25T02:53:03;13.82;;;3.67;;
67595;SDS011;54410;48.694;8.934;2024-01-25T02:55:30;13.48;;;3.50;;
67595;SDS011;54410;48.694;8.934;2024-01-25T02:57:56;15.50;;;4.30;;
67595;SDS011;54410;48.694;8.934;2024-01-25T03:00:22;14.55;;;3.72;;
67595;SDS011;54410;48.694;8.934;2024-01-25T03:02:48;14.05;;;3.72;;
67595;SDS011;54410;48.694;8.934;2024-01-25T03:05:13;17.15;;;4.65;;
67595;SDS011;54410;48.694;8.934;2024-01-25T03:07:39;12.50;;;3.80;;
67595;SDS011;54410;48.694;8.934;2024-01-25T03:10:05;24.73;;;4.97;;
67595;SDS011;54410;48.694;8.934;2024-01-25T03:12:32;18.40;;;3.60;;
67595;SDS011;54410;48.694;8.934;2024-01-25T03:14:57;13.02;;;3.88;;
67595;SDS011;54410;48.694;8.934;2024-01-25T03:17:23;15.98;;;3.88;;
67595;SDS011;54410;48.694;8.934;2024-01-25T03:19:50;12.23;;;3.92;;
67595;SDS011;54410;48.694;8.934;2024-01-25T03:22:16;10.93;;;3.35;;
67595;SDS011;54410;48.694;8.934;2024-01-25T03:24:42;15.23;;;3.70;;
67595;SDS011;54410;48.694;8.934;2024-01-25T03:27:08;12.43;;;3.67;;
67595;SDS011;54410;48.694;8.934;2024-01-25T03:29:42;9.07;;;3.67;;
67595;SDS011;54410;48.694;8.934;2024-01-25T03:32:09;12.45;;;3.70;;
67595;SDS011;54410;48.694;8.934;2024-01-25T03:34:35;11.80;;;3.50;;
67595;SDS011;54410;48.694;8.934;2024-01-25T03:37:01;10.88;;;3.15;;
67595;SDS011;54410;48.694;8.934;2024-01-25T03:39:27;11.70;;;3.67;;
67595;SDS011;54410;48.694;8.934;2024-01-25T03:41:53;13.55;;;3.53;;
67595;SDS011;54410;48.694;8.934;2024-01-25T03:44:19;11.57;;;3.40;;
67595;SDS011;54410;48.694;8.934;2024-01-25T03:46:45;8.73;;;3.35;;
67595;SDS011;54410;48.694;8.934;2024-01-25T03:49:11;14.75;;;3.70;;
67595;SDS011;54410;48.694;8.934;2024-01-25T03:51:37;11.15;;;3.45;;
67595;SDS011;54410;48.694;8.934;2024-01-25T03:54:03;13.27;;;3.30;;
67595;SDS011;54410;48.694;8.934;2024-01-25T03:56:29;15.35;;;3.90;;
67595;SDS011;54410;48.694;8.934;2024-01-25T03:58:55;10.93;;;3.17;;
67595;SDS011;54410;48.694;8.934;2024-01-25T04:01:20;14.45;;;3.95;;
67595;SDS011;54410;48.694;8.934;2024-01-25T04:03:46;12.05;;;3.35;;
67595;SDS011;54410;48.694;8.934;2024-01-25T04:06:12;12.18;;;3.50;;
67595;SDS011;54410;48.694;8.934;2024-01-25T04:08:38;9.25;;;3.53;;
67595;SDS011;54410;48.694;8.934;2024-01-25T04:11:04;14.40;;;4.05;;
67595;SDS011;54410;48.694;8.934;2024-01-25T04:13:30;11.85;;;3.20;;
67595;SDS011;54410;48.694;8.934;2024-01-25T04:15:56;15.43;;;3.70;;
67595;SDS011;54410;48.694;8.934;2024-01-25T04:18:22;10.73;;;3.20;;
67595;SDS011;54410;48.694;8.934;2024-01-25T04:20:48;9.40;;;3.38;;
67595;SDS011;54410;48.694;8.934;2024-01-25T04:23:15;17.15;;;3.55;;
67595;SDS011;54410;48.694;8.934;2024-01-25T04:25:41;10.68;;;3.90;;
67595;SDS011;54410;48.694;8.934;2024-01-25T04:28:07;15.18;;;3.55;;
67595;SDS011;54410;48.694;8.934;2024-01-25T04:30:33;11.82;;;3.35;;
67595;SDS011;54410;48.694;8.934;2024-01-25T04:32:59;11.52;;;3.53;;
67595;SDS011;54410;48.694;8.934;2024-01-25T04:35:25;15.75;;;3.55;;
67595;SDS011;54410;48.694;8.934;2024-01-25T04:37:51;12.70;;;4.28;;
67595;SDS011;54410;48.694;8.934;2024-01-25T04:40:17;11.80;;;3.63;;
67595;SDS011;54410;48.694;8.934;2024-01-25T04:42:44;11.00;;;3.45;;
67595;SDS011;54410;48.694;8.934;2024-01-25T04:45:10;20.88;;;4.18;;
67595;SDS011;54410;48.694;8.934;2024-01-25T04:47:37;11.32;;;3.25;;
67595;SDS011;54410;48.694;8.934;2024-01-25T04:50:04;13.55;;;3.63;;
67595;SDS011;54410;48.694;8.934;2024-01-25T04:52:30;8.93;;;3.55;;
67595;SDS011;54410;48.694;8.934;2024-01-25T04:54:56;12.88;;;3.35;;
67595;SDS011;54410;48.694;8.934;2024-01-25T04:57:22;16.48;;;3.80;;
67595;SDS011;54410;48.694;8.934;2024-01-25T04:59:47;19.80;;;3.75;;
67595;SDS011;54410;48.694;8.934;2024-01-25T05:02:13;13.35;;;3.67;;
67595;SDS011;54410;48.694;8.934;2024-01-25T05:04:40;10.50;;;3.47;;
67595;SDS011;54410;48.694;8.934;2024-01-25T05:07:05;12.13;;;3.80;;
67595;SDS011;54410;48.694;8.934;2024-01-25T05:09:31;14.23;;;3.63;;
67595;SDS011;54410;48.694;8.934;2024-01-25T05:11:57;12.45;;;3.95;;
67595;SDS011;54410;48.694;8.934;2024-01-25T05:14:26;17.35;;;4.50;;
67595;SDS011;54410;48.694;8.934;2024-01-25T05:16:52;14.68;;;3.58;;
67595;SDS011;54410;48.694;8.934;2024-01-25T05:19:18;16.42;;;3.90;;
67595;SDS011;54410;48.694;8.934;2024-01-25T05:21:44;10.57;;;3.85;;
67595;SDS011;54410;48.694;8.934;2024-01-25T05:24:11;18.75;;;4.32;;
67595;SDS011;54410;48.694;8.934;2024-01-25T05:26:37;11.38;;;3.90;;
67595;SDS011;54410;48.694;8.934;2024-01-25T05:29:03;13.52;;;4.53;;
67595;SDS011;54410;48.694;8.934;2024-01-25T05:31:29;14.98;;;4.43;;
67595;SDS011;54410;48.694;8.934;2024-01-25T05:33:55;13.00;;;4.20;;
67595;SDS011;54410;48.694;8.934;2024-01-25T05:36:21;14.00;;;4.10;;
67595;SDS011;54410;48.694;8.934;2024-01-25T05:38:47;15.15;;;4.93;;
67595;SDS011;54410;48.694;8.934;2024-01-25T05:41:13;16.42;;;3.63;;
67595;SDS011;54410;48.694;8.934;2024-01-25T05:43:39;13.82;;;4.60;;
67595;SDS011;54410;48.694;8.934;2024-01-25T05:46:05;13.73;;;4.20;;
67595;SDS011;54410;48.694;8.934;2024-01-25T05:48:31;16.20;;;4.40;;
67595;SDS011;54410;48.694;8.934;2024-01-25T05:50:57;11.20;;;4.60;;
67595;SDS011;54410;48.694;8.934;2024-01-25T05:53:23;15.43;;;4.18;;
67595;SDS011;54410;48.694;8.934;2024-01-25T05:55:49;12.83;;;3.90;;
67595;SDS011;54410;48.694;8.934;2024-01-25T05:58:15;14.10;;;4.47;;
67595;SDS011;54410;48.694;8.934;2024-01-25T06:00:42;18.90;;;5.07;;
67595;SDS011;54410;48.694;8.934;2024-01-25T06:03:08;14.93;;;4.63;;
67595;SDS011;54410;48.694;8.934;2024-01-25T06:05:34;10.13;;;4.13;;
67595;SDS011;54410;48.694;8.934;2024-01-25T06:08:00;13.77;;;4.90;;
67595;SDS011;54410;48.694;8.934;2024-01-25T06:10:26;14.20;;;4.20;;
67595;SDS011;54410;48.694;8.934;2024-01-25T06:12:52;17.30;;;3.83;;
67595;SDS011;54410;48.694;8.934;2024-01-25T06:15:18;14.90;;;4.33;;
67595;SDS011;54410;48.694;8.934;2024-01-25T06:17:44;12.73;;;3.90;;
67595;SDS011;54410;48.694;8.934;2024-01-25T06:20:10;15.33;;;4.27;;
67595;SDS011;54410;48.694;8.934;2024-01-25T06:22:36;12.97;;;4.50;;
67595;SDS011;54410;48.694;8.934;2024-01-25T06:25:02;14.90;;;4.20;;
67595;SDS011;54410;48.694;8.934;2024-01-25T06:27:31;13.17;;;3.80;;
67595;SDS011;54410;48.694;8.934;2024-01-25T06:29:57;11.27;;;3.53;;
67595;SDS011;54410;48.694;8.934;2024-01-25T06:32:23;13.83;;;3.90;;
67595;SDS011;54410;48.694;8.934;2024-01-25T06:34:49;14.33;;;4.53;;
67595;SDS011;54410;48.694;8.934;2024-01-25T06:37:14;18.27;;;5.00;;
67595;SDS011;54410;48.694;8.934;2024-01-25T06:39:43;63.17;;;27.43;;
67595;SDS011;54410;48.694;8.934;2024-01-25T06:42:09;105.60;;;33.70;;
67595;SDS011;54410;48.694;8.934;2024-01-25T06:44:35;45.93;;;15.53;;
67595;SDS011;54410;48.694;8.934;2024-01-25T06:47:01;27.17;;;9.03;;
67595;SDS011;54410;48.694;8.934;2024-01-25T06:49:27;18.70;;;6.13;;
67595;SDS011;54410;48.694;8.934;2024-01-25T06:51:53;17.03;;;5.20;;
67595;SDS011;54410;48.694;8.934;2024-01-25T06:54:19;9.10;;;4.10;;
67595;SDS011;54410;48.694;8.934;2024-01-25T06:56:45;11.00;;;4.20;;
67595;SDS011;54410;48.694;8.934;2024-01-25T06:59:11;13.63;;;4.33;;
67595;SDS011;54410;48.694;8.934;2024-01-25T07:01:37;12.90;;;3.93;;
67595;SDS011;54410;48.694;8.934;2024-01-25T07:04:03;19.20;;;4.60;;
67595;SDS011;54410;48.694;8.934;2024-01-25T07:06:29;19.83;;;4.43;;
67595;SDS011;54410;48.694;8.934;2024-01-25T07:08:55;10.87;;;3.90;;
67595;SDS011;54410;48.694;8.934;2024-01-25T07:11:21;12.13;;;4.80;;
67595;SDS011;54410;48.694;8.934;2024-01-25T07:13:47;17.23;;;4.67;;
67595;SDS011;54410;48.694;8.934;2024-01-25T07:16:12;13.93;;;4.50;;
67595;SDS011;54410;48.694;8.934;2024-01-25T07:18:38;14.33;;;5.03;;
67595;SDS011;54410;48.694;8.934;2024-01-25T07:21:04;12.13;;;4.40;;
67595;SDS011;54410;48.694;8.934;2024-01-25T07:23:32;24.63;;;5.87;;
67595;SDS011;54410;48.694;8.934;2024-01-25T07:25:58;12.37;;;4.37;;
67595;SDS011;54410;48.694;8.934;2024-01-25T07:28:24;14.30;;;4.27;;
67595;SDS011;54410;48.694;8.934;2024-01-25T07:30:50;19.67;;;4.33;;
67595;SDS011;54410;48.694;8.934;2024-01-25T07:33:16;12.83;;;4.20;;
67595;SDS011;54410;48.694;8.934;2024-01-25T07:35:42;12.73;;;4.50;;
67595;SDS011;54410;48.694;8.934;2024-01-25T07:38:11;15.70;;;4.07;;
67595;SDS011;54410;48.694;8.934;2024-01-25T07:40:37;14.83;;;4.70;;
67595;SDS011;54410;48.694;8.934;2024-01-25T07:43:03;10.03;;;4.33;;
67595;SDS011;54410;48.694;8.934;2024-01-25T07:45:30;19.53;;;4.10;;
67595;SDS011;54410;48.694;8.934;2024-01-25T07:47:56;11.93;;;4.10;;
67595;SDS011;54410;48.694;8.934;2024-01-25T07:50:22;14.20;;;4.37;;
67595;SDS011;54410;48.694;8.934;2024-01-25T07:52:48;14.37;;;4.47;;
67595;SDS011;54410;48.694;8.934;2024-01-25T07:55:15;16.13;;;4.30;;
67595;SDS011;54410;48.694;8.934;2024-01-25T07:57:41;13.50;;;3.63;;
67595;SDS011;54410;48.694;8.934;2024-01-25T08:00:07;9.03;;;3.60;;
67595;SDS011;54410;48.694;8.934;2024-01-25T08:02:34;15.97;;;4.37;;
67595;SDS011;54410;48.694;8.934;2024-01-25T08:05:00;17.83;;;4.00;;
67595;SDS011;54410;48.694;8.934;2024-01-25T08:07:25;13.07;;;3.87;;
67595;SDS011;54410;48.694;8.934;2024-01-25T08:09:51;11.00;;;3.70;;
67595;SDS011;54410;48.694;8.934;2024-01-25T08:12:18;14.83;;;4.47;;
67595;SDS011;54410;48.694;8.934;2024-01-25T08:14:44;8.53;;;4.10;;
67595;SDS011;54410;48.694;8.934;2024-01-25T08:17:10;17.50;;;4.67;;
67595;SDS011;54410;48.694;8.934;2024-01-25T08:19:36;18.30;;;4.55;;
67595;SDS011;54410;48.694;8.934;2024-01-25T08:22:02;10.83;;;4.17;;
67595;SDS011;54410;48.694;8.934;2024-01-25T08:24:28;14.30;;;4.03;;
67595;SDS011;54410;48.694;8.934;2024-01-25T08:26:53;12.27;;;3.35;;
67595;SDS011;54410;48.694;8.934;2024-01-25T08:29:19;8.63;;;3.40;;
67595;SDS011;54410;48.694;8.934;2024-01-25T08:31:46;6.00;;;3.27;;
67595;SDS011;54410;48.694;8.934;2024-01-25T08:34:13;10.20;;;4.38;;
67595;SDS011;54410;48.694;8.934;2024-01-25T08:36:39;15.88;;;4.35;;
67595;SDS011;54410;48.694;8.934;2024-01-25T08:39:04;9.90;;;3.78;;
67595;SDS011;54410;48.694;8.934;2024-01-25T08:41:30;8.40;;;3.20;;
67595;SDS011;54410;48.694;8.934;2024-01-25T08:43:56;12.30;;;3.47;;
67595;SDS011;54410;48.694;8.934;2024-01-25T08:46:22;10.02;;;3.42;;
67595;SDS011;54410;48.694;8.934;2024-01-25T08:48:48;10.50;;;3.13;;
67595;SDS011;54410;48.694;8.934;2024-01-25T08:51:14;11.30;;;3.72;;
67595;SDS011;54410;48.694;8.934;2024-01-25T08:53:40;8.20;;;3.13;;
67595;SDS011;54410;48.694;8.934;2024-01-25T08:56:06;7.88;;;3.08;;
67595;SDS011;54410;48.694;8.934;2024-01-25T08:58:32;11.60;;;3.13;;
67595;SDS011;54410;48.694;8.934;2024-01-25T09:00:58;10.55;;;4.10;;
67595;SDS011;54410;48.694;8.934;2024-01-25T09:03:24;11.40;;;3.30;;
67595;SDS011;54410;48.694;8.934;2024-01-25T09:05:50;11.88;;;3.50;;
67595;SDS011;54410;48.694;8.934;2024-01-25T09:08:15;12.65;;;3.88;;
67595;SDS011;54410;48.694;8.934;2024-01-25T09:10:41;8.15;;;3.00;;
67595;SDS011;54410;48.694;8.934;2024-01-25T09:13:08;8.95;;;3.05;;
67595;SDS011;54410;48.694;8.934;2024-01-25T09:15:34;11.20;;;3.00;;
67595;SDS011;54410;48.694;8.934;2024-01-25T09:18:00;8.70;;;3.17;;
67595;SDS011;54410;48.694;8.934;2024-01-25T09:20:26;12.50;;;3.20;;
67595;SDS011;54410;48.694;8.934;2024-01-25T09:22:52;8.73;;;3.13;;
67595;SDS011;54410;48.694;8.934;2024-01-25T09:25:21;5.53;;;2.78;;
67595;SDS011;54410;48.694;8.934;2024-01-25T09:27:46;7.68;;;3.25;;
67595;SDS011;54410;48.694;8.934;2024-01-25T09:30:12;9.25;;;3.30;;
67595;SDS011;54410;48.694;8.934;2024-01-25T09:32:38;14.60;;;3.47;;
67595;SDS011;54410;48.694;8.934;2024-01-25T09:35:05;10.13;;;3.10;;
67595;SDS011;54410;48.694;8.934;2024-01-25T09:37:31;8.18;;;2.95;;
67595;SDS011;54410;48.694;8.934;2024-01-25T09:39:57;15.45;;;3.67;;
67595;SDS011;54410;48.694;8.934;2024-01-25T09:42:27;11.68;;;3.55;;
67595;SDS011;54410;48.694;8.934;2024-01-25T09:44:53;9.68;;;3.60;;
67595;SDS011;54410;48.694;8.934;2024-01-25T09:47:20;7.32;;;3.10;;
67595;SDS011;54410;48.694;8.934;2024-01-25T09:49:47;13.88;;;3.40;;
67595;SDS011;54410;48.694;8.934;2024-01-25T09:52:13;8.50;;;3.30;;
67595;SDS011;54410;48.694;8.934;2024-01-25T09:54:40;11.57;;;3.30;;
67595;SDS011;54410;48.694;8.934;2024-01-25T09:57:08;18.27;;;4.30;;
67595;SDS011;54410;48.694;8.934;2024-01-25T09:59:37;13.30;;;3.50;;
67595;SDS011;54410;48.694;8.934;2024-01-25T10:02:03;15.52;;;4.10;;
67595;SDS011;54410;48.694;8.934;2024-01-25T10:04:29;10.30;;;3.45;;
67595;SDS011;54410;48.694;8.934;2024-01-25T10:06:55;11.98;;;3.55;;
67595;SDS011;54410;48.694;8.934;2024-01-25T10:09:22;9.48;;;3.60;;
67595;SDS011;54410;48.694;8.934;2024-01-25T10:11:48;8.52;;;3.65;;
67595;SDS011;54410;48.694;8.934;2024-01-25T10:14:14;16.00;;;4.25;;
67595;SDS011;54410;48.694;8.934;2024-01-25T10:16:40;12.95;;;3.35;;
67595;SDS011;54410;48.694;8.934;2024-01-25T10:19:06;9.98;;;3.20;;
67595;SDS011;54410;48.694;8.934;2024-01-25T10:21:32;6.88;;;3.13;;
67595;SDS011;54410;48.694;8.934;2024-01-25T10:24:00;10.85;;;3.28;;
67595;SDS011;54410;48.694;8.934;2024-01-25T10:26:27;12.60;;;3.58;;
67595;SDS011;54410;48.694;8.934;2024-01-25T10:28:56;7.45;;;3.42;;
67595;SDS011;54410;48.694;8.934;2024-01-25T10:31:24;13.15;;;3.45;;
67595;SDS011;54410;48.694;8.934;2024-01-25T10:33:53;11.88;;;3.22;;
67595;SDS011;54410;48.694;8.934;2024-01-25T10:36:22;10.98;;;4.03;;
67595;SDS011;54410;48.694;8.934;2024-01-25T10:38:48;11.02;;;4.53;;
67595;SDS011;54410;48.694;8.934;2024-01-25T10:41:15;6.75;;;3.67;;
67595;SDS011;54410;48.694;8.934;2024-01-25T10:43:42;8.80;;;3.38;;
67595;SDS011;54410;48.694;8.934;2024-01-25T10:46:08;12.25;;;3.20;;
67595;SDS011;54410;48.694;8.934;2024-01-25T10:48:34;8.35;;;3.30;;
67595;SDS011;54410;48.694;8.934;2024-01-25T10:51:00;11.90;;;3.42;;
67595;SDS011;54410;48.694;8.934;2024-01-25T10:53:33;9.98;;;3.25;;
67595;SDS011;54410;48.694;8.934;2024-01-25T10:55:59;10.13;;;3.35;;
67595;SDS011;54410;48.694;8.934;2024-01-25T10:58:32;10.02;;;3.97;;
67595;SDS011;54410;48.694;8.934;2024-01-25T11:01:00;7.50;;;3.03;;
67595;SDS011;54410;48.694;8.934;2024-01-25T11:03:28;11.93;;;3.35;;
67595;SDS011;54410;48.694;8.934;2024-01-25T11:06:04;11.07;;;3.28;;
67595;SDS011;54410;48.694;8.934;2024-01-25T11:08:31;6.50;;;3.22;;
67595;SDS011;54410;48.694;8.934;2024-01-25T11:10:57;11.27;;;3.42;;
67595;SDS011;54410;48.694;8.934;2024-01-25T11:13:23;13.88;;;3.55;;
67595;SDS011;54410;48.694;8.934;2024-01-25T11:15:50;8.75;;;3.05;;
67595;SDS011;54410;48.694;8.934;2024-01-25T11:18:16;7.10;;;3.08;;
67595;SDS011;54410;48.694;8.934;2024-01-25T11:20:42;8.40;;;3.10;;
67595;SDS011;54410;48.694;8.934;2024-01-25T11:23:08;10.30;;;3.20;;
67595;SDS011;54410;48.694;8.934;2024-01-25T11:25:36;14.80;;;3.55;;
67595;SDS011;54410;48.694;8.934;2024-01-25T11:28:02;8.10;;;3.13;;
67595;SDS011;54410;48.694;8.934;2024-01-25T11:30:29;10.30;;;3.53;;
67595;SDS011;54410;48.694;8.934;2024-01-25T11:32:55;10.20;;;3.17;;
67595;SDS011;54410;48.694;8.934;2024-01-25T11:35:22;9.23;;;2.95;;
67595;SDS011;54410;48.694;8.934;2024-01-25T11:37:49;8.80;;;3.60;;
67595;SDS011;54410;48.694;8.934;2024-01-25T11:40:18;7.85;;;3.30;;
67595;SDS011;54410;48.694;8.934;2024-01-25T11:42:48;8.40;;;3.45;;
67595;SDS011;54410;48.694;8.934;2024-01-25T11:45:15;8.65;;;3.20;;
67595;SDS011;54410;48.694;8.934;2024-01-25T11:47:42;12.20;;;3.20;;
67595;SDS011;54410;48.694;8.934;2024-01-25T11:50:08;8.40;;;3.08;;
67595;SDS011;54410;48.694;8.934;2024-01-25T11:52:35;7.90;;;3.25;;
67595;SDS011;54410;48.694;8.934;2024-01-25T11:55:07;7.97;;;3.95;;
67595;SDS011;54410;48.694;8.934;2024-01-25T11:57:35;10.02;;;3.08;;
67595;SDS011;54410;48.694;8.934;2024-01-25T12:00:02;11.30;;;3.15;;
67595;SDS011;54410;48.694;8.934;2024-01-25T12:02:29;8.95;;;2.72;;
67595;SDS011;54410;48.694;8.934;2024-01-25T12:04:56;10.02;;;3.15;;
67595;SDS011;54410;48.694;8.934;2024-01-25T12:07:22;8.63;;;3.20;;
67595;SDS011;54410;48.694;8.934;2024-01-25T12:12:23;7.07;;;2.97;;
67595;SDS011;54410;48.694;8.934;2024-01-25T12:14:49;7.20;;;2.88;;
67595;SDS011;54410;48.694;8.934;2024-01-25T12:17:17;6.28;;;2.83;;
67595;SDS011;54410;48.694;8.934;2024-01-25T12:19:43;11.00;;;3.15;;
67595;SDS011;54410;48.694;8.934;2024-01-25T12:22:09;8.18;;;2.70;;
67595;SDS011;54410;48.694;8.934;2024-01-25T12:24:35;6.20;;;3.10;;
67595;SDS011;54410;48.694;8.934;2024-01-25T12:27:01;11.25;;;2.90;;
67595;SDS011;54410;48.694;8.934;2024-01-25T12:29:27;6.00;;;2.38;;
67595;SDS011;54410;48.694;8.934;2024-01-25T12:31:53;8.45;;;3.00;;
67595;SDS011;54410;48.694;8.934;2024-01-25T12:34:19;11.80;;;2.78;;
67595;SDS011;54410;48.694;8.934;2024-01-25T12:36:45;12.90;;;2.88;;
67595;SDS011;54410;48.694;8.934;2024-01-25T12:39:11;6.55;;;2.58;;
67595;SDS011;54410;48.694;8.934;2024-01-25T12:41:39;7.90;;;2.78;;
67595;SDS011;54410;48.694;8.934;2024-01-25T12:44:05;6.80;;;2.90;;
67595;SDS011;54410;48.694;8.934;2024-01-25T12:46:32;5.53;;;2.40;;
67595;SDS011;54410;48.694;8.934;2024-01-25T12:48:58;5.72;;;2.70;;
67595;SDS011;54410;48.694;8.934;2024-01-25T12:51:24;5.57;;;2.33;;
67595;SDS011;54410;48.694;8.934;2024-01-25T12:53:50;11.40;;;2.90;;
67595;SDS011;54410;48.694;8.934;2024-01-25T12:56:16;6.93;;;3.20;;
67595;SDS011;54410;48.694;8.934;2024-01-25T12:58:41;5.57;;;2.53;;
67595;SDS011;54410;48.694;8.934;2024-01-25T13:01:07;5.30;;;3.08;;
67595;SDS011;54410;48.694;8.934;2024-01-25T13:03:33;9.55;;;3.22;;
67595;SDS011;54410;48.694;8.934;2024-01-25T13:05:59;6.93;;;2.70;;
67595;SDS011;54410;48.694;8.934;2024-01-25T13:08:28;6.85;;;3.00;;
67595;SDS011;54410;48.694;8.934;2024-01-25T13:10:54;9.23;;;2.83;;
67595;SDS011;54410;48.694;8.934;2024-01-25T13:13:20;9.45;;;2.88;;
67595;SDS011;54410;48.694;8.934;2024-01-25T13:15:46;5.32;;;2.47;;
67595;SDS011;54410;48.694;8.934;2024-01-25T13:18:12;3.70;;;2.28;;
67595;SDS011;54410;48.694;8.934;2024-01-25T13:20:38;10.40;;;3.08;;
67595;SDS011;54410;48.694;8.934;2024-01-25T13:23:04;7.47;;;3.20;;
67595;SDS011;54410;48.694;8.934;2024-01-25T13:25:31;9.15;;;2.85;;
67595;SDS011;54410;48.694;8.934;2024-01-25T13:27:57;7.68;;;2.88;;
67595;SDS011;54410;48.694;8.934;2024-01-25T13:30:23;8.90;;;2.85;;
67595;SDS011;54410;48.694;8.934;2024-01-25T13:32:49;7.90;;;2.60;;
67595;SDS011;54410;48.694;8.934;2024-01-25T13:35:15;7.75;;;2.80;;
67595;SDS011;54410;48.694;8.934;2024-01-25T13:37:41;7.10;;;2.50;;
67595;SDS011;54410;48.694;8.934;2024-01-25T13:40:07;7.95;;;2.85;;
67595;SDS011;54410;48.694;8.934;2024-01-25T13:42:33;4.45;;;2.67;;
67595;SDS011;54410;48.694;8.934;2024-01-25T13:44:59;6.65;;;2.50;;
67595;SDS011;54410;48.694;8.934;2024-01-25T13:47:25;9.05;;;2.55;;
67595;SDS011;54410;48.694;8.934;2024-01-25T13:49:52;8.00;;;2.60;;
67595;SDS011;54410;48.694;8.934;2024-01-25T13:52:18;6.72;;;2.63;;
67595;SDS011;54410;48.694;8.934;2024-01-25T13:54:47;6.28;;;2.75;;
67595;SDS011;54410;48.694;8.934;2024-01-25T13:57:16;11.45;;;2.90;;
67595;SDS011;54410;48.694;8.934;2024-01-25T13:59:42;10.68;;;2.80;;
67595;SDS011;54410;48.694;8.934;2024-01-25T14:02:08;6.55;;;2.78;;
67595;SDS011;54410;48.694;8.934;2024-01-25T14:04:34;12.43;;;3.70;;
67595;SDS011;54410;48.694;8.934;2024-01-25T14:07:00;6.40;;;2.92;;
67595;SDS011;54410;48.694;8.934;2024-01-25T14:09:27;7.03;;;3.03;;
67595;SDS011;54410;48.694;8.934;2024-01-25T14:11:56;7.90;;;2.88;;
67595;SDS011;54410;48.694;8.934;2024-01-25T14:14:22;6.47;;;2.88;;
67595;SDS011;54410;48.694;8.934;2024-01-25T14:16:48;7.55;;;3.20;;
67595;SDS011;54410;48.694;8.934;2024-01-25T14:19:14;9.25;;;2.90;;
67595;SDS011;54410;48.694;8.934;2024-01-25T14:21:42;5.82;;;2.75;;
67595;SDS011;54410;48.694;8.934;2024-01-25T14:24:08;14.43;;;3.22;;
67595;SDS011;54410;48.694;8.934;2024-01-25T14:26:34;6.82;;;2.67;;
67595;SDS011;54410;48.694;8.934;2024-01-25T14:29:00;4.47;;;2.53;;
67595;SDS011;54410;48.694;8.934;2024-01-25T14:31:26;4.50;;;2.30;;
67595;SDS011;54410;48.694;8.934;2024-01-25T14:33:52;4.68;;;2.47;;
67595;SDS011;54410;48.694;8.934;2024-01-25T14:36:18;5.90;;;2.70;;